sensor_id;sensor_type;location;lat;lon;timestamp;pressure;altitude;pressure_sealevel;temperature;humidity
1472;BME280;963;42.644;23.336;2023-09-08T00:02:07;94739.84;;;19.37;75.12
1472;BME280;963;42.644;23.336;2023-09-08T00:04:33;94732.69;;;19.27;75.77
1472;BME280;963;42.644;23.336;2023-09-08T00:06:59;94738.31;;;19.36;75.43
1472;BME280;963;42.644;23.336;2023-09-08T00:09:24;94722.25;;;19.05;76.77
1472;BME280;963;42.644;23.336;2023-09-08T00:11:50;94719.50;;;19.13;76.45
1472;BME280;963;42.644;23.336;2023-09-08T00:14:15;94737.09;;;19.07;76.33
1472;BME280;963;42.644;23.336;2023-09-08T00:16:40;94720.19;;;19.20;70.42
1472;BME280;963;42.644;23.336;2023-09-08T00:19:08;94720.28;;;19.10;71.56
1472;BME280;963;42.644;23.336;2023-09-08T00:21:33;94714.41;;;19.25;68.64
1472;BME280;963;42.644;23.336;2023-09-08T00:23:58;94697.28;;;19.23;67.48
1472;BME280;963;42.644;23.336;2023-09-08T00:26:26;94702.25;;;19.21;67.09
1472;BME280;963;42.644;23.336;2023-09-08T00:28:51;94711.75;;;19.25;67.75
1472;BME280;963;42.644;23.336;2023-09-08T00:31:16;94691.16;;;19.26;66.78
1472;BME280;963;42.644;23.336;2023-09-08T00:33:42;94705.56;;;19.32;66.37
1472;BME280;963;42.644;23.336;2023-09-08T00:36:09;94711.69;;;19.29;66.14
1472;BME280;963;42.644;23.336;2023-09-08T00:38:35;94717.38;;;19.31;66.10
1472;BME280;963;42.644;23.336;2023-09-08T00:41:14;94710.16;;;19.31;66.47
1472;BME280;963;42.644;23.336;2023-09-08T00:43:50;94706.38;;;19.29;65.64
1472;BME280;963;42.644;23.336;2023-09-08T00:46:17;94706.03;;;19.23;66.02
1472;BME280;963;42.644;23.336;2023-09-08T00:48:43;94700.22;;;19.35;64.68
1472;BME280;963;42.644;23.336;2023-09-08T00:51:08;94706.38;;;19.29;65.34
1472;BME280;963;42.644;23.336;2023-09-08T00:53:35;94695.78;;;19.22;64.66
1472;BME280;963;42.644;23.336;2023-09-08T00:56:02;94697.69;;;19.21;64.99
1472;BME280;963;42.644;23.336;2023-09-08T00:58:28;94693.38;;;19.34;63.41
1472;BME280;963;42.644;23.336;2023-09-08T01:00:53;94706.13;;;19.50;62.70
1472;BME280;963;42.644;23.336;2023-09-08T01:03:20;94700.97;;;19.36;63.88
1472;BME280;963;42.644;23.336;2023-09-08T01:05:46;94695.78;;;19.22;64.69
1472;BME280;963;42.644;23.336;2023-09-08T01:08:12;94692.22;;;19.32;64.09
1472;BME280;963;42.644;23.336;2023-09-08T01:10:38;94701.38;;;19.34;63.74
1472;BME280;963;42.644;23.336;2023-09-08T01:13:07;94703.34;;;19.27;64.42
1472;BME280;963;42.644;23.336;2023-09-08T01:15:32;94700.88;;;19.43;64.27
1472;BME280;963;42.644;23.336;2023-09-08T01:17:58;94683.28;;;19.49;64.02
1472;BME280;963;42.644;23.336;2023-09-08T01:26:17;94716.03;;;19.53;66.89
1472;BME280;963;42.644;23.336;2023-09-08T01:28:45;94699.13;;;19.29;67.80
1472;BME280;963;42.644;23.336;2023-09-08T01:31:14;94703.41;;;19.20;67.34
1472;BME280;963;42.644;23.336;2023-09-08T01:33:40;94699.25;;;19.19;67.02
1472;BME280;963;42.644;23.336;2023-09-08T01:36:07;94699.69;;;19.14;67.71
1472;BME280;963;42.644;23.336;2023-09-08T01:38:33;94693.19;;;19.15;67.83
1472;BME280;963;42.644;23.336;2023-09-08T01:40:58;94702.91;;;19.32;67.72
1472;BME280;963;42.644;23.336;2023-09-08T01:43:23;94694.69;;;19.53;67.10
1472;BME280;963;42.644;23.336;2023-09-08T01:45:49;94688.38;;;19.36;67.33
1472;BME280;963;42.644;23.336;2023-09-08T01:48:14;94691.94;;;19.23;68.56
1472;BME280;963;42.644;23.336;2023-09-08T01:50:40;94687.34;;;19.27;68.64
1472;BME280;963;42.644;23.336;2023-09-08T01:53:05;94695.78;;;19.22;69.09
1472;BME280;963;42.644;23.336;2023-09-08T01:55:31;94699.28;;;19.15;69.32
1472;BME280;963;42.644;23.336;2023-09-08T01:57:56;94679.94;;;19.08;69.47
1472;BME280;963;42.644;23.336;2023-09-08T02:00:22;94691.16;;;18.88;70.83
1472;BME280;963;42.644;23.336;2023-09-08T02:02:47;94689.22;;;18.96;70.36
1472;BME280;963;42.644;23.336;2023-09-08T02:05:14;94685.75;;;18.95;70.67
1472;BME280;963;42.644;23.336;2023-09-08T02:07:39;94680.19;;;18.83;71.05
1472;BME280;963;42.644;23.336;2023-09-08T02:10:06;94697.56;;;18.94;71.33
1472;BME280;963;42.644;23.336;2023-09-08T02:12:32;94696.94;;;18.83;72.03
1472;BME280;963;42.644;23.336;2023-09-08T02:14:57;94690.00;;;18.89;71.88
1472;BME280;963;42.644;23.336;2023-09-08T02:17:22;94677.53;;;18.79;72.58
1472;BME280;963;42.644;23.336;2023-09-08T02:19:48;94673.16;;;18.55;73.32
1472;BME280;963;42.644;23.336;2023-09-08T02:22:13;94680.88;;;18.42;74.63
1472;BME280;963;42.644;23.336;2023-09-08T02:24:39;94680.19;;;18.34;74.80
1472;BME280;963;42.644;23.336;2023-09-08T02:27:04;94670.78;;;18.23;75.61
1472;BME280;963;42.644;23.336;2023-09-08T02:29:31;94681.81;;;18.21;75.95
1472;BME280;963;42.644;23.336;2023-09-08T02:31:56;94651.03;;;18.13;76.02
1472;BME280;963;42.644;23.336;2023-09-08T02:34:21;94667.72;;;18.24;76.14
1472;BME280;963;42.644;23.336;2023-09-08T02:36:47;94672.28;;;18.20;76.49
1472;BME280;963;42.644;23.336;2023-09-08T02:39:16;94666.94;;;18.27;76.32
1472;BME280;963;42.644;23.336;2023-09-08T02:41:41;94667.56;;;18.42;75.86
1472;BME280;963;42.644;23.336;2023-09-08T02:44:07;94668.94;;;18.61;75.22
1472;BME280;963;42.644;23.336;2023-09-08T02:46:32;94658.53;;;18.77;74.57
1472;BME280;963;42.644;23.336;2023-09-08T02:48:57;94663.31;;;18.96;73.71
1472;BME280;963;42.644;23.336;2023-09-08T02:51:23;94667.53;;;18.90;73.87
1472;BME280;963;42.644;23.336;2023-09-08T02:53:48;94659.88;;;18.92;73.87
1472;BME280;963;42.644;23.336;2023-09-08T02:56:14;94657.22;;;18.92;74.24
1472;BME280;963;42.644;23.336;2023-09-08T02:58:39;94667.72;;;19.10;73.87
1472;BME280;963;42.644;23.336;2023-09-08T03:01:15;94658.47;;;19.18;74.02
1472;BME280;963;42.644;23.336;2023-09-08T03:03:41;94663.72;;;19.25;74.27
1472;BME280;963;42.644;23.336;2023-09-08T03:06:07;94657.94;;;19.34;74.11
1472;BME280;963;42.644;23.336;2023-09-08T03:08:33;94660.91;;;19.40;74.01
1472;BME280;963;42.644;23.336;2023-09-08T03:10:59;94664.22;;;19.17;74.16
1472;BME280;963;42.644;23.336;2023-09-08T03:13:24;94661.16;;;18.81;76.58
1472;BME280;963;42.644;23.336;2023-09-08T03:15:54;94671.13;;;18.73;76.81
1472;BME280;963;42.644;23.336;2023-09-08T03:18:20;94668.19;;;18.64;77.05
1472;BME280;963;42.644;23.336;2023-09-08T03:20:50;94653.72;;;18.61;77.54
1472;BME280;963;42.644;23.336;2023-09-08T03:23:16;94671.22;;;18.66;77.38
1472;BME280;963;42.644;23.336;2023-09-08T03:25:42;94662.84;;;18.60;77.61
1472;BME280;963;42.644;23.336;2023-09-08T03:28:07;94682.22;;;18.68;77.61
1472;BME280;963;42.644;23.336;2023-09-08T03:30:33;94671.13;;;18.73;77.41
1472;BME280;963;42.644;23.336;2023-09-08T03:32:58;94664.50;;;18.43;78.96
1472;BME280;963;42.644;23.336;2023-09-08T03:35:23;94670.56;;;18.48;79.07
1472;BME280;963;42.644;23.336;2023-09-08T03:37:49;94669.88;;;18.40;80.03
1472;BME280;963;42.644;23.336;2023-09-08T03:40:14;94681.84;;;18.14;80.90
1472;BME280;963;42.644;23.336;2023-09-08T03:42:40;94681.16;;;18.06;81.97
1472;BME280;963;42.644;23.336;2023-09-08T03:45:07;94663.56;;;18.16;81.50
1472;BME280;963;42.644;23.336;2023-09-08T03:47:33;94692.97;;;18.02;81.99
1472;BME280;963;42.644;23.336;2023-09-08T03:49:58;94670.94;;;17.98;82.21
1472;BME280;963;42.644;23.336;2023-09-08T03:52:23;94682.44;;;17.77;83.63
1472;BME280;963;42.644;23.336;2023-09-08T03:54:49;94681.41;;;17.53;84.27
1472;BME280;963;42.644;23.336;2023-09-08T03:57:14;94670.38;;;17.55;84.44
1472;BME280;963;42.644;23.336;2023-09-08T03:59:40;94669.63;;;17.58;84.07
1472;BME280;963;42.644;23.336;2023-09-08T04:02:05;94661.22;;;17.70;83.36
1472;BME280;963;42.644;23.336;2023-09-08T04:04:30;94668.88;;;17.54;84.35
1472;BME280;963;42.644;23.336;2023-09-08T04:06:56;94671.06;;;17.76;82.88
1472;BME280;963;42.644;23.336;2023-09-08T04:09:21;94673.72;;;17.73;83.57
1472;BME280;963;42.644;23.336;2023-09-08T04:11:47;94682.84;;;17.75;83.90
1472;BME280;963;42.644;23.336;2023-09-08T04:14:12;94682.53;;;17.56;85.63
1472;BME280;963;42.644;23.336;2023-09-08T04:16:37;94665.09;;;17.51;85.55
1472;BME280;963;42.644;23.336;2023-09-08T04:19:03;94665.06;;;17.58;86.04
1472;BME280;963;42.644;23.336;2023-09-08T04:21:28;94669.59;;;17.68;85.80
1472;BME280;963;42.644;23.336;2023-09-08T04:23:54;94669.19;;;17.66;86.17
1472;BME280;963;42.644;23.336;2023-09-08T04:26:19;94677.94;;;17.63;87.23
1472;BME280;963;42.644;23.336;2023-09-08T04:28:45;94692.38;;;17.66;86.92
1472;BME280;963;42.644;23.336;2023-09-08T04:31:10;94681.38;;;17.60;87.30
1472;BME280;963;42.644;23.336;2023-09-08T04:33:35;94693.09;;;17.84;86.34
1472;BME280;963;42.644;23.336;2023-09-08T04:36:01;94679.31;;;17.96;85.51
1472;BME280;963;42.644;23.336;2023-09-08T04:38:26;94685.28;;;18.11;84.98
1472;BME280;963;42.644;23.336;2023-09-08T04:40:51;94686.97;;;17.91;85.50
1472;BME280;963;42.644;23.336;2023-09-08T04:43:17;94680.91;;;17.79;85.87
1472;BME280;963;42.644;23.336;2023-09-08T04:45:42;94693.00;;;17.95;85.33
1472;BME280;963;42.644;23.336;2023-09-08T04:48:08;94700.16;;;18.08;84.17
1472;BME280;963;42.644;23.336;2023-09-08T04:50:33;94687.97;;;18.07;84.33
1472;BME280;963;42.644;23.336;2023-09-08T04:53:00;94683.16;;;17.92;85.04
1472;BME280;963;42.644;23.336;2023-09-08T04:55:25;94676.31;;;17.91;85.02
1472;BME280;963;42.644;23.336;2023-09-08T04:57:50;94692.09;;;18.16;83.58
1472;BME280;963;42.644;23.336;2023-09-08T05:00:16;94680.66;;;18.19;82.29
1472;BME280;963;42.644;23.336;2023-09-08T05:02:42;94688.28;;;18.24;79.67
1472;BME280;963;42.644;23.336;2023-09-08T05:05:07;94684.69;;;18.41;79.70
1472;BME280;963;42.644;23.336;2023-09-08T05:07:33;94684.19;;;18.60;79.91
1472;BME280;963;42.644;23.336;2023-09-08T05:09:58;94687.97;;;18.63;79.45
1472;BME280;963;42.644;23.336;2023-09-08T05:12:24;94683.44;;;18.53;79.31
1472;BME280;963;42.644;23.336;2023-09-08T05:14:49;94683.88;;;18.48;78.17
1472;BME280;963;42.644;23.336;2023-09-08T05:17:21;94693.69;;;18.58;77.66
1472;BME280;963;42.644;23.336;2023-09-08T05:19:46;94686.53;;;18.48;77.56
1472;BME280;963;42.644;23.336;2023-09-08T05:22:12;94682.38;;;18.47;77.62
1472;BME280;963;42.644;23.336;2023-09-08T05:24:37;94697.84;;;18.66;77.08
1472;BME280;963;42.644;23.336;2023-09-08T05:27:02;94696.34;;;18.65;77.33
1472;BME280;963;42.644;23.336;2023-09-08T05:29:28;94700.03;;;18.78;77.21
1472;BME280;963;42.644;23.336;2023-09-08T05:31:53;94686.09;;;18.60;77.63
1472;BME280;963;42.644;23.336;2023-09-08T05:34:19;94687.91;;;18.70;77.56
1472;BME280;963;42.644;23.336;2023-09-08T05:36:44;94715.66;;;18.76;76.32
1472;BME280;963;42.644;23.336;2023-09-08T05:39:09;94689.34;;;18.78;75.47
1472;BME280;963;42.644;23.336;2023-09-08T05:41:35;94687.78;;;18.84;74.41
1472;BME280;963;42.644;23.336;2023-09-08T05:44:01;94693.81;;;18.88;72.93
1472;BME280;963;42.644;23.336;2023-09-08T05:46:27;94682.25;;;19.05;70.41
1472;BME280;963;42.644;23.336;2023-09-08T05:48:53;94680.91;;;18.87;69.56
1472;BME280;963;42.644;23.336;2023-09-08T05:51:18;94702.41;;;19.07;69.92
1472;BME280;963;42.644;23.336;2023-09-08T05:53:43;94699.00;;;19.06;69.45
1472;BME280;963;42.644;23.336;2023-09-08T05:56:09;94699.84;;;18.99;70.14
1472;BME280;963;42.644;23.336;2023-09-08T05:58:35;94698.25;;;19.05;69.48
1472;BME280;963;42.644;23.336;2023-09-08T06:01:01;94722.91;;;19.13;69.39
1472;BME280;963;42.644;23.336;2023-09-08T06:03:27;94690.56;;;19.11;68.61
1472;BME280;963;42.644;23.336;2023-09-08T06:05:53;94705.97;;;19.30;67.74
1472;BME280;963;42.644;23.336;2023-09-08T06:08:18;94711.19;;;19.41;67.95
1472;BME280;963;42.644;23.336;2023-09-08T06:10:43;94703.25;;;19.38;67.61
1472;BME280;963;42.644;23.336;2023-09-08T06:13:09;94703.91;;;19.45;66.19
1472;BME280;963;42.644;23.336;2023-09-08T06:15:35;94692.13;;;19.43;66.35
1472;BME280;963;42.644;23.336;2023-09-08T06:18:00;94711.47;;;19.50;65.15
1472;BME280;963;42.644;23.336;2023-09-08T06:20:26;94708.38;;;19.55;65.07
1472;BME280;963;42.644;23.336;2023-09-08T06:22:52;94702.91;;;19.66;64.85
1472;BME280;963;42.644;23.336;2023-09-08T06:25:17;94700.94;;;19.74;63.30
1472;BME280;963;42.644;23.336;2023-09-08T06:27:43;94725.63;;;19.81;63.50
1472;BME280;963;42.644;23.336;2023-09-08T06:30:08;94714.84;;;19.88;61.62
1472;BME280;963;42.644;23.336;2023-09-08T06:32:34;94709.69;;;20.01;61.78
1472;BME280;963;42.644;23.336;2023-09-08T06:34:59;94724.56;;;20.02;60.39
1472;BME280;963;42.644;23.336;2023-09-08T06:37:25;94708.34;;;19.89;60.17
1472;BME280;963;42.644;23.336;2023-09-08T06:39:50;94738.63;;;20.06;60.68
1472;BME280;963;42.644;23.336;2023-09-08T06:42:15;94729.31;;;20.18;60.05
1472;BME280;963;42.644;23.336;2023-09-08T06:44:41;94729.41;;;20.38;59.72
1472;BME280;963;42.644;23.336;2023-09-08T06:47:06;94731.16;;;20.51;58.23
1472;BME280;963;42.644;23.336;2023-09-08T06:49:34;94721.69;;;20.47;58.42
1472;BME280;963;42.644;23.336;2023-09-08T06:52:00;94709.94;;;20.64;58.69
1472;BME280;963;42.644;23.336;2023-09-08T06:54:25;94716.63;;;20.76;58.09
1472;BME280;963;42.644;23.336;2023-09-08T06:56:50;94723.59;;;20.93;57.17
1472;BME280;963;42.644;23.336;2023-09-08T06:59:16;94730.75;;;20.76;57.27
1472;BME280;963;42.644;23.336;2023-09-08T07:01:42;94712.91;;;20.70;57.37
1472;BME280;963;42.644;23.336;2023-09-08T07:04:07;94722.03;;;20.72;56.62
1472;BME280;963;42.644;23.336;2023-09-08T07:06:33;94729.47;;;20.61;57.49
1472;BME280;963;42.644;23.336;2023-09-08T07:08:59;94731.91;;;20.75;57.32
1472;BME280;963;42.644;23.336;2023-09-08T07:11:25;94720.03;;;21.00;56.96
1472;BME280;963;42.644;23.336;2023-09-08T07:13:51;94715.38;;;21.04;55.56
1472;BME280;963;42.644;23.336;2023-09-08T07:16:17;94722.34;;;21.21;55.50
1472;BME280;963;42.644;23.336;2023-09-08T07:18:42;94721.09;;;21.06;55.83
1472;BME280;963;42.644;23.336;2023-09-08T07:21:08;94730.75;;;21.23;56.24
1472;BME280;963;42.644;23.336;2023-09-08T07:23:34;94722.78;;;21.19;55.60
1472;BME280;963;42.644;23.336;2023-09-08T07:26:01;94721.28;;;21.38;55.69
1472;BME280;963;42.644;23.336;2023-09-08T07:28:27;94700.75;;;21.51;55.08
1472;BME280;963;42.644;23.336;2023-09-08T07:30:52;94714.56;;;21.70;55.16
1472;BME280;963;42.644;23.336;2023-09-08T07:33:18;94722.97;;;21.88;54.45
1472;BME280;963;42.644;23.336;2023-09-08T07:35:44;94718.16;;;21.99;54.35
1472;BME280;963;42.644;23.336;2023-09-08T07:38:10;94711.44;;;22.11;53.82
1472;BME280;963;42.644;23.336;2023-09-08T07:40:35;94704.84;;;22.32;53.75
1472;BME280;963;42.644;23.336;2023-09-08T07:43:01;94707.34;;;22.39;53.23
1472;BME280;963;42.644;23.336;2023-09-08T07:45:26;94719.06;;;22.29;52.67
1472;BME280;963;42.644;23.336;2023-09-08T07:47:52;94704.81;;;22.15;52.27
1472;BME280;963;42.644;23.336;2023-09-08T07:50:22;94699.44;;;22.15;52.13
1472;BME280;963;42.644;23.336;2023-09-08T07:52:49;94718.25;;;22.32;52.54
1472;BME280;963;42.644;23.336;2023-09-08T07:55:15;94707.16;;;22.30;53.48
1472;BME280;963;42.644;23.336;2023-09-08T07:57:44;94707.91;;;22.14;52.23
1472;BME280;963;42.644;23.336;2023-09-08T08:00:11;94713.94;;;22.18;53.24
1472;BME280;963;42.644;23.336;2023-09-08T08:02:41;94712.72;;;22.03;53.19
1472;BME280;963;42.644;23.336;2023-09-08T08:05:07;94707.16;;;22.13;53.81
1472;BME280;963;42.644;23.336;2023-09-08T08:07:32;94716.03;;;22.27;53.79
1472;BME280;963;42.644;23.336;2023-09-08T08:09:58;94714.22;;;22.40;53.94
1472;BME280;963;42.644;23.336;2023-09-08T08:12:24;94700.81;;;22.56;54.04
1472;BME280;963;42.644;23.336;2023-09-08T08:14:49;94693.09;;;22.58;52.32
1472;BME280;963;42.644;23.336;2023-09-08T08:17:14;94698.38;;;22.62;51.49
1472;BME280;963;42.644;23.336;2023-09-08T08:19:42;94697.47;;;22.68;51.79
1472;BME280;963;42.644;23.336;2023-09-08T08:22:08;94695.69;;;22.78;51.96
1472;BME280;963;42.644;23.336;2023-09-08T08:24:33;94700.47;;;22.54;50.93
1472;BME280;963;42.644;23.336;2023-09-08T08:26:59;94696.53;;;22.59;50.41
1472;BME280;963;42.644;23.336;2023-09-08T08:29:27;94700.72;;;22.76;50.63
1472;BME280;963;42.644;23.336;2023-09-08T08:31:52;94686.97;;;22.90;49.76
1472;BME280;963;42.644;23.336;2023-09-08T08:34:17;94704.16;;;22.93;50.30
1472;BME280;963;42.644;23.336;2023-09-08T08:36:43;94688.59;;;22.88;50.20
1472;BME280;963;42.644;23.336;2023-09-08T08:39:08;94689.25;;;22.92;48.09
1472;BME280;963;42.644;23.336;2023-09-08T08:41:33;94697.28;;;22.92;49.21
1472;BME280;963;42.644;23.336;2023-09-08T08:44:03;94683.69;;;22.99;48.66
1472;BME280;963;42.644;23.336;2023-09-08T08:46:29;94674.03;;;23.01;48.57
1472;BME280;963;42.644;23.336;2023-09-08T08:48:56;94677.41;;;23.05;48.48
1472;BME280;963;42.644;23.336;2023-09-08T08:51:23;94650.84;;;22.78;48.29
1472;BME280;963;42.644;23.336;2023-09-08T08:53:49;94678.69;;;22.85;48.63
1472;BME280;963;42.644;23.336;2023-09-08T08:56:15;94674.66;;;22.93;47.27
1472;BME280;963;42.644;23.336;2023-09-08T08:58:41;94674.38;;;23.03;47.78
1472;BME280;963;42.644;23.336;2023-09-08T09:01:07;94660.56;;;23.05;47.67
1472;BME280;963;42.644;23.336;2023-09-08T09:03:36;94688.34;;;22.82;48.39
1472;BME280;963;42.644;23.336;2023-09-08T09:06:03;94679.53;;;22.82;49.07
1472;BME280;963;42.644;23.336;2023-09-08T09:08:31;94677.03;;;23.03;47.96
1472;BME280;963;42.644;23.336;2023-09-08T09:10:56;94669.94;;;22.97;48.22
1472;BME280;963;42.644;23.336;2023-09-08T09:13:21;94674.75;;;23.18;46.86
1472;BME280;963;42.644;23.336;2023-09-08T09:15:48;94696.59;;;23.04;47.19
1472;BME280;963;42.644;23.336;2023-09-08T09:18:14;94683.59;;;23.02;47.35
1472;BME280;963;42.644;23.336;2023-09-08T09:20:40;94674.97;;;23.11;47.10
1472;BME280;963;42.644;23.336;2023-09-08T09:23:06;94690.41;;;23.07;47.84
1472;BME280;963;42.644;23.336;2023-09-08T09:25:32;94657.34;;;23.10;47.41
1472;BME280;963;42.644;23.336;2023-09-08T09:28:02;94678.50;;;22.92;47.34
1472;BME280;963;42.644;23.336;2023-09-08T09:30:45;94669.63;;;22.95;47.89
1472;BME280;963;42.644;23.336;2023-09-08T09:33:11;94673.63;;;23.03;47.12
1472;BME280;963;42.644;23.336;2023-09-08T09:35:45;94671.09;;;23.12;47.01
1472;BME280;963;42.644;23.336;2023-09-08T09:38:11;94665.00;;;23.24;46.75
1472;BME280;963;42.644;23.336;2023-09-08T09:40:37;94669.09;;;23.29;47.09
1472;BME280;963;42.644;23.336;2023-09-08T09:43:04;94664.09;;;23.44;46.64
1472;BME280;963;42.644;23.336;2023-09-08T09:45:31;94673.91;;;23.21;47.62
1472;BME280;963;42.644;23.336;2023-09-08T09:47:57;94656.56;;;23.38;47.54
1472;BME280;963;42.644;23.336;2023-09-08T09:50:33;94657.81;;;23.63;46.80
1472;BME280;963;42.644;23.336;2023-09-08T09:53:01;94655.91;;;23.76;45.97
1472;BME280;963;42.644;23.336;2023-09-08T09:55:27;94649.78;;;23.88;46.29
1472;BME280;963;42.644;23.336;2023-09-08T09:57:58;94655.16;;;23.88;46.63
1472;BME280;963;42.644;23.336;2023-09-08T10:00:29;94646.56;;;23.93;46.97
1472;BME280;963;42.644;23.336;2023-09-08T10:02:56;94663.94;;;23.76;47.61
1472;BME280;963;42.644;23.336;2023-09-08T10:05:23;94655.25;;;23.72;47.60
1472;BME280;963;42.644;23.336;2023-09-08T10:07:49;94652.63;;;23.43;46.28
1472;BME280;963;42.644;23.336;2023-09-08T10:10:15;94653.81;;;23.55;47.58
1472;BME280;963;42.644;23.336;2023-09-08T10:12:43;94647.28;;;23.56;45.93
1472;BME280;963;42.644;23.336;2023-09-08T10:15:11;94645.25;;;23.60;46.02
1472;BME280;963;42.644;23.336;2023-09-08T10:17:37;94644.94;;;23.58;46.03
1472;BME280;963;42.644;23.336;2023-09-08T10:20:05;94627.09;;;23.77;46.39
1472;BME280;963;42.644;23.336;2023-09-08T10:22:38;94637.19;;;24.11;46.03
1472;BME280;963;42.644;23.336;2023-09-08T10:25:06;94637.44;;;24.29;45.20
1472;BME280;963;42.644;23.336;2023-09-08T10:27:31;94630.41;;;24.44;45.60
1472;BME280;963;42.644;23.336;2023-09-08T10:30:00;94637.41;;;24.42;44.82
1472;BME280;963;42.644;23.336;2023-09-08T10:32:27;94621.94;;;23.95;45.99
1472;BME280;963;42.644;23.336;2023-09-08T10:34:53;94635.19;;;23.89;45.66
1472;BME280;963;42.644;23.336;2023-09-08T10:37:24;94638.28;;;23.75;46.51
1472;BME280;963;42.644;23.336;2023-09-08T10:39:51;94629.03;;;24.01;46.88
1472;BME280;963;42.644;23.336;2023-09-08T10:47:18;94632.38;;;24.31;47.80
1472;BME280;963;42.644;23.336;2023-09-08T10:49:44;94633.84;;;24.57;47.47
1472;BME280;963;42.644;23.336;2023-09-08T10:52:12;94615.78;;;24.80;46.04
1472;BME280;963;42.644;23.336;2023-09-08T10:54:41;94621.97;;;24.89;46.19
1472;BME280;963;42.644;23.336;2023-09-08T10:57:13;94618.16;;;24.78;46.27
1472;BME280;963;42.644;23.336;2023-09-08T10:59:40;94621.97;;;24.68;46.80
1472;BME280;963;42.644;23.336;2023-09-08T11:04:58;94627.81;;;24.53;47.47
1472;BME280;963;42.644;23.336;2023-09-08T11:07:24;94634.84;;;24.38;46.67
1472;BME280;963;42.644;23.336;2023-09-08T11:09:50;94603.06;;;24.58;46.48
1472;BME280;963;42.644;23.336;2023-09-08T11:12:16;94618.78;;;24.47;47.23
1472;BME280;963;42.644;23.336;2023-09-08T11:14:43;94612.44;;;24.41;47.19
1472;BME280;963;42.644;23.336;2023-09-08T11:17:09;94614.75;;;24.30;47.65
1472;BME280;963;42.644;23.336;2023-09-08T11:20:03;94606.00;;;24.13;47.87
1472;BME280;963;42.644;23.336;2023-09-08T11:22:33;94601.19;;;24.21;48.10
1472;BME280;963;42.644;23.336;2023-09-08T11:24:59;94608.94;;;24.19;47.80
1472;BME280;963;42.644;23.336;2023-09-08T11:27:27;94616.69;;;24.17;47.54
1472;BME280;963;42.644;23.336;2023-09-08T11:29:54;94614.00;;;23.91;48.34
1472;BME280;963;42.644;23.336;2023-09-08T11:32:19;94613.88;;;24.08;48.23
1472;BME280;963;42.644;23.336;2023-09-08T11:34:45;94604.31;;;24.19;48.45
1472;BME280;963;42.644;23.336;2023-09-08T11:37:10;94621.06;;;24.23;48.22
1472;BME280;963;42.644;23.336;2023-09-08T11:39:39;94604.19;;;24.23;48.63
1472;BME280;963;42.644;23.336;2023-09-08T11:42:05;94603.75;;;24.37;47.89
1472;BME280;963;42.644;23.336;2023-09-08T11:44:32;94589.28;;;24.56;47.88
1472;BME280;963;42.644;23.336;2023-09-08T11:46:58;94595.63;;;24.84;46.99
1472;BME280;963;42.644;23.336;2023-09-08T11:49:24;94582.53;;;24.74;47.23
1472;BME280;963;42.644;23.336;2023-09-08T11:51:50;94592.56;;;24.73;47.06
1472;BME280;963;42.644;23.336;2023-09-08T11:54:15;94581.66;;;24.77;47.26
1472;BME280;963;42.644;23.336;2023-09-08T11:56:42;94589.06;;;24.85;47.29
1472;BME280;963;42.644;23.336;2023-09-08T11:59:08;94580.63;;;24.96;47.34
1472;BME280;963;42.644;23.336;2023-09-08T12:01:34;94584.34;;;25.11;47.40
1472;BME280;963;42.644;23.336;2023-09-08T12:03:59;94598.56;;;25.34;46.40
1472;BME280;963;42.644;23.336;2023-09-08T12:06:26;94591.69;;;25.42;46.26
1472;BME280;963;42.644;23.336;2023-09-08T12:08:55;94577.50;;;25.72;45.08
1472;BME280;963;42.644;23.336;2023-09-08T12:11:21;94575.72;;;25.78;45.14
1472;BME280;963;42.644;23.336;2023-09-08T12:13:46;94584.53;;;25.48;44.82
1472;BME280;963;42.644;23.336;2023-09-08T12:16:19;94574.66;;;25.67;45.09
1472;BME280;963;42.644;23.336;2023-09-08T12:18:45;94574.09;;;25.81;45.04
1472;BME280;963;42.644;23.336;2023-09-08T12:21:11;94569.59;;;25.78;45.12
1472;BME280;963;42.644;23.336;2023-09-08T12:23:47;94568.88;;;25.86;44.63
1472;BME280;963;42.644;23.336;2023-09-08T12:26:14;94568.94;;;25.12;45.08
1472;BME280;963;42.644;23.336;2023-09-08T12:28:39;94557.47;;;25.20;44.72
1472;BME280;963;42.644;23.336;2023-09-08T12:31:05;94547.00;;;25.22;44.51
1472;BME280;963;42.644;23.336;2023-09-08T12:33:30;94546.38;;;25.18;44.95
1472;BME280;963;42.644;23.336;2023-09-08T12:35:56;94543.84;;;25.46;44.83
1472;BME280;963;42.644;23.336;2023-09-08T12:38:21;94557.59;;;25.70;43.35
1472;BME280;963;42.644;23.336;2023-09-08T12:40:48;94560.59;;;25.50;43.43
1472;BME280;963;42.644;23.336;2023-09-08T12:43:14;94559.28;;;25.85;42.70
1472;BME280;963;42.644;23.336;2023-09-08T12:45:39;94541.34;;;26.01;43.08
1472;BME280;963;42.644;23.336;2023-09-08T12:48:05;94554.84;;;26.10;42.56
1472;BME280;963;42.644;23.336;2023-09-08T12:50:32;94549.00;;;26.02;43.01
1472;BME280;963;42.644;23.336;2023-09-08T12:52:57;94552.19;;;26.28;43.26
1472;BME280;963;42.644;23.336;2023-09-08T12:55:23;94541.44;;;26.56;42.48
1472;BME280;963;42.644;23.336;2023-09-08T12:57:49;94532.72;;;26.70;41.53
1472;BME280;963;42.644;23.336;2023-09-08T13:00:15;94536.94;;;26.80;41.27
1472;BME280;963;42.644;23.336;2023-09-08T13:02:41;94540.81;;;26.97;40.87
1472;BME280;963;42.644;23.336;2023-09-08T13:05:09;94536.63;;;26.87;40.77
1472;BME280;963;42.644;23.336;2023-09-08T13:07:34;94533.50;;;25.75;42.17
1472;BME280;963;42.644;23.336;2023-09-08T13:10:00;94546.66;;;25.73;42.46
1472;BME280;963;42.644;23.336;2023-09-08T13:12:25;94536.59;;;25.65;42.24
1472;BME280;963;42.644;23.336;2023-09-08T13:14:51;94550.81;;;25.65;42.86
1472;BME280;963;42.644;23.336;2023-09-08T13:17:17;94560.31;;;25.48;43.23
1472;BME280;963;42.644;23.336;2023-09-08T13:19:43;94537.69;;;25.76;42.92
1472;BME280;963;42.644;23.336;2023-09-08T13:22:09;94541.50;;;26.06;42.41
1472;BME280;963;42.644;23.336;2023-09-08T13:24:35;94538.97;;;26.12;42.20
1472;BME280;963;42.644;23.336;2023-09-08T13:27:01;94531.50;;;26.25;42.26
1472;BME280;963;42.644;23.336;2023-09-08T13:29:26;94534.41;;;26.49;41.72
1472;BME280;963;42.644;23.336;2023-09-08T13:31:52;94548.66;;;26.00;42.15